Observation data for Post on 06/20/2019      Previous  Date  Next       Current Mesonet Observations  Soil Data  Daily Summary Page  Observations in Plain Language
KPT1 200500Z 11006KT 24/20 A2983 RMK A01 T02380198  RH  081%=      5-min Rain = 0
KPT1 200505Z 12005KT 24/20 A2983 RMK A01 T02370198  RH  081%=      5-min Rain = 0
KPT1 200510Z 12006KT 24/20 A2983 RMK A01 T02360198  RH  082%=      5-min Rain = 0
KPT1 200515Z 11005KT 24/20 A2983 RMK A01 T02350199  RH  082%=      5-min Rain = 0
KPT1 200520Z 10004KT 24/20 A2983 RMK A01 T02360199  RH  082%=      5-min Rain = 0
KPT1 200525Z 11004KT 24/20 A2984 RMK A01 T02350199  RH  082%=      5-min Rain = 0
KPT1 200530Z 11005KT 24/20 A2983 RMK A01 T02350200  RH  083%=      5-min Rain = 0
KPT1 200535Z 13006KT 24/20 A2983 RMK A01 T02350200  RH  083%=      5-min Rain = 0
KPT1 200540Z 14005KT 23/20 A2984 RMK A01 T02330200  RH  084%=      5-min Rain = 0
KPT1 200545Z 15004KT 23/20 A2984 RMK A01 T02310200  RH  085%=      5-min Rain = 0
KPT1 200550Z 13003KT 23/20 A2984 RMK A01 T02310201  RH  086%=      5-min Rain = 0
KPT1 200555Z 12003KT 23/20 A2984 RMK A01 T02330202  RH  085%=      5-min Rain = 0
KPT1 200600Z 12004KT 23/20 A2984 RMK A01 T02330201  RH  084%=      5-min Rain = 0
KPT1 200605Z 13005KT 23/20 A2984 RMK A01 T02330200  RH  084%=      5-min Rain = 0
KPT1 200610Z 13005KT 23/20 A2984 RMK A01 T02320199  RH  084%=      5-min Rain = 0
KPT1 200615Z 13005KT 23/20 A2984 RMK A01 T02310199  RH  084%=      5-min Rain = 0
KPT1 200620Z 13005KT 23/20 A2984 RMK A01 T02310199  RH  084%=      5-min Rain = 0
KPT1 200625Z 12004KT 23/20 A2984 RMK A01 T02320198  RH  084%=      5-min Rain = 0
KPT1 200630Z 14004KT 23/20 A2984 RMK A01 T02310198  RH  084%=      5-min Rain = 0
KPT1 200635Z 15005KT 23/20 A2983 RMK A01 T02300197  RH  084%=      5-min Rain = 0
KPT1 200640Z 16005KT 23/20 A2983 RMK A01 T02270196  RH  085%=      5-min Rain = 0
KPT1 200645Z 16004KT 23/20 A2983 RMK A01 T02260197  RH  086%=      5-min Rain = 0
KPT1 200650Z 17004KT 23/20 A2983 RMK A01 T02250197  RH  086%=      5-min Rain = 0
KPT1 200655Z 18002KT 23/20 A2983 RMK A01 T02250198  RH  087%=      5-min Rain = 0
KPT1 200700Z 19001KT 23/20 A2982 RMK A01 T02260198  RH  087%=      5-min Rain = 0
KPT1 200705Z 22001KT 23/20 A2982 RMK A01 T02270198  RH  086%=      5-min Rain = 0
KPT1 200710Z 24001KT 23/20 A2982 RMK A01 T02280197  RH  085%=      5-min Rain = 0
KPT1 200715Z 20001KT 23/20 A2982 RMK A01 T02290197  RH  084%=      5-min Rain = 0
KPT1 200720Z 16003KT 23/20 A2982 RMK A01 T02290196  RH  084%=      5-min Rain = 0
KPT1 200725Z 15003KT 23/20 A2981 RMK A01 T02260195  RH  085%=      5-min Rain = 0
KPT1 200730Z 15003KT 23/20 A2981 RMK A01 T02250195  RH  086%=      5-min Rain = 0
KPT1 200735Z 12002KT 23/20 A2981 RMK A01 T02250196  RH  086%=      5-min Rain = 0
KPT1 200740Z 05002KT 22/19 A2981 RMK A01 T02200193  RH  087%=      5-min Rain = 0
KPT1 200745Z 02003KT 22/19 A2981 RMK A01 T02150192  RH  089%=      5-min Rain = 0
KPT1 200750Z 01003KT 21/19 A2981 RMK A01 T02140192  RH  090%=      5-min Rain = 0
KPT1 200755Z 03002KT 21/19 A2981 RMK A01 T02110191  RH  091%=      5-min Rain = 0
KPT1 200800Z 05002KT 21/19 A2981 RMK A01 T02120194  RH  092%=      5-min Rain = 0
KPT1 200805Z 06001KT 21/20 A2981 RMK A01 T02130195  RH  092%=      5-min Rain = 0
KPT1 200810Z 03001KT 21/20 A2981 RMK A01 T02130196  RH  092%=      5-min Rain = 0
KPT1 200815Z 01002KT 21/20 A298 RMK A01 T02140196  RH  092%=      5-min Rain = 0
KPT1 200820Z 34001KT 21/19 A298 RMK A01 T02120194  RH  092%=      5-min Rain = 0
KPT1 200825Z 31002KT 21/19 A298 RMK A01 T02050189  RH  093%=      5-min Rain = 0
KPT1 200830Z 33003KT 20/19 A298 RMK A01 T02030189  RH  094%=      5-min Rain = 0
KPT1 200835Z 33004KT 20/19 A2981 RMK A01 T02000187  RH  095%=      5-min Rain = 0
KPT1 200840Z 31005KT 20/19 A2981 RMK A01 T01960185  RH  095%=      5-min Rain = 0
KPT1 200845Z 35001KT 20/19 A298 RMK A01 T01970187  RH  096%=      5-min Rain = 0
KPT1 200850Z 13001KT 20/19 A298 RMK A01 T01970188  RH  097%=      5-min Rain = 0
KPT1 200855Z 15002KT 20/19 A2979 RMK A01 T01980189  RH  097%=      5-min Rain = 0
KPT1 200900Z 15000KT 20/19 A298 RMK A01 T01990190  RH  097%=      5-min Rain = 0
KPT1 200905Z 06002KT 20/20 A2979 RMK A01 T02040195  RH  097%=      5-min Rain = 0
KPT1 200910Z 05003KT 21/20 A2979 RMK A01 T02070196  RH  096%=      5-min Rain = 0
KPT1 200915Z 35003KT 20/19 A2979 RMK A01 T02000186  RH  094%=      5-min Rain = 0
KPT1 200920Z 34002KT 20/19 A2979 RMK A01 T01970185  RH  095%=      5-min Rain = 0
KPT1 200925Z 07001KT 20/19 A2979 RMK A01 T01960186  RH  096%=      5-min Rain = 0
KPT1 200930Z 10002KT 20/19 A2979 RMK A01 T01950186  RH  097%=      5-min Rain = 0
KPT1 200935Z 11001KT 20/19 A2979 RMK A01 T01970188  RH  097%=      5-min Rain = 0
KPT1 200940Z 10002KT 20/19 A2979 RMK A01 T01990191  RH  097%=      5-min Rain = 0
KPT1 200945Z 05002KT 20/19 A2979 RMK A01 T02010192  RH  097%=      5-min Rain = 0
KPT1 200950Z 33005KT 19/18 A298 RMK A01 T01930182  RH  096%=      5-min Rain = 0
KPT1 200955Z 31005KT 19/18 A298 RMK A01 T01880179  RH  097%=      5-min Rain = 0
KPT1 201000Z 22002KT 19/18 A2979 RMK A01 T01880179  RH  097%=      5-min Rain = 0
KPT1 201005Z 18004KT 19/18 A2978 RMK A01 T01880180  RH  098%=      5-min Rain = 0
KPT1 201010Z 21002KT 19/18 A2978 RMK A01 T01900183  RH  098%=      5-min Rain = 0
KPT1 201015Z 27000KT 19/18 A2979 RMK A01 T01910184  RH  098%=      5-min Rain = 0
KPT1 201020Z 20000KT 19/19 A2979 RMK A01 T01930185  RH  098%=      5-min Rain = 0
KPT1 201025Z 18002KT 19/19 A2979 RMK A01 T01930185  RH  098%=      5-min Rain = 0
KPT1 201030Z 19003KT 19/19 A2979 RMK A01 T01930185  RH  097%=      5-min Rain = 0
KPT1 201035Z 20003KT 19/18 A2979 RMK A01 T01920183  RH  097%=      5-min Rain = 0
KPT1 201040Z 26003KT 19/18 A2979 RMK A01 T01930183  RH  096%=      5-min Rain = 0
KPT1 201045Z 27002KT 19/18 A2979 RMK A01 T01900179  RH  096%=      5-min Rain = 0
KPT1 201050Z 19004KT 19/18 A2979 RMK A01 T01860176  RH  096%=      5-min Rain = 0
KPT1 201055Z 19004KT 19/18 A2978 RMK A01 T01880179  RH  097%=      5-min Rain = 0
KPT1 201100Z 19002KT 19/18 A2979 RMK A01 T01890180  RH  097%=      5-min Rain = 0
KPT1 201105Z 16004KT 19/18 A2979 RMK A01 T01890179  RH  096%=      5-min Rain = 0
KPT1 201110Z 18004KT 19/17 A2979 RMK A01 T01880174  RH  094%=      5-min Rain = 0
KPT1 201115Z 30005KT 19/17 A298 RMK A01 T01880170  RH  091%=      5-min Rain = 0
KPT1 201120Z 33005KT 19/17 A298 RMK A01 T01850169  RH  093%=      5-min Rain = 0
KPT1 201125Z 28002KT 18/17 A298 RMK A01 T01820169  RH  094%=      5-min Rain = 0
KPT1 201130Z 29003KT 18/17 A298 RMK A01 T01810169  RH  095%=      5-min Rain = 0
KPT1 201135Z 27003KT 18/17 A298 RMK A01 T01810169  RH  095%=      5-min Rain = 0
KPT1 201140Z 22002KT 18/17 A298 RMK A01 T01800167  RH  094%=      5-min Rain = 0
KPT1 201145Z 19003KT 18/17 A298 RMK A01 T01810169  RH  094%=      5-min Rain = 0
KPT1 201150Z 18005KT 18/17 A298 RMK A01 T01810167  RH  094%=      5-min Rain = 0
KPT1 201155Z 19004KT 18/17 A298 RMK A01 T01800167  RH  094%=      5-min Rain = 0
KPT1 201200Z 25001KT 18/17 A298 RMK A01 T01840170  RH  094%=      5-min Rain = 0
KPT1 201205Z 25003KT 19/17 A298 RMK A01 T01850170  RH  093%=      5-min Rain = 0
KPT1 201210Z 21005KT 19/17 A298 RMK A01 T01870170  RH  093%=      5-min Rain = 0
KPT1 201215Z 20006KT 19/17 A298 RMK A01 T01910173  RH  091%=      5-min Rain = 0
KPT1 201220Z 19007KT 20/18 A298 RMK A01 T01990177  RH  089%=      5-min Rain = 0
KPT1 201225Z 19004KT 20/18 A298 RMK A01 T02040178  RH  087%=      5-min Rain = 0
KPT1 201230Z 21004KT 21/18 A298 RMK A01 T02060179  RH  087%=      5-min Rain = 0
KPT1 201235Z 21005KT 21/18 A298 RMK A01 T02070180  RH  086%=      5-min Rain = 0
KPT1 201240Z 21006KT 21/18 A298 RMK A01 T02080180  RH  086%=      5-min Rain = 0
KPT1 201245Z 20006KT 21/18 A298 RMK A01 T02100180  RH  085%=      5-min Rain = 0
KPT1 201250Z 21005KT 21/18 A298 RMK A01 T02120181  RH  085%=      5-min Rain = 0
KPT1 201255Z 21006KT 21/18 A298 RMK A01 T02130181  RH  084%=      5-min Rain = 0
KPT1 201300Z 21005KT 22/18 A298 RMK A01 T02150183  RH  084%=      5-min Rain = 0
KPT1 201305Z 22006KT 22/18 A298 RMK A01 T02180181  RH  082%=      5-min Rain = 0
KPT1 201310Z 22006KT 22/18 A298 RMK A01 T02160180  RH  082%=      5-min Rain = 0
KPT1 201315Z 21007KT 22/18 A298 RMK A01 T02190182  RH  081%=      5-min Rain = 0
KPT1 201320Z 20007KT 22/18 A2981 RMK A01 T02200181  RH  080%=      5-min Rain = 0
KPT1 201325Z 20006KT 23/18 A2981 RMK A01 T02260182  RH  078%=      5-min Rain = 0
KPT1 201330Z 19004KT 23/18 A2981 RMK A01 T02340183  RH  075%=      5-min Rain = 0
KPT1 201335Z 22005KT 24/18 A2981 RMK A01 T02370182  RH  073%=      5-min Rain = 0
KPT1 201340Z 22007KT 24/18 A2981 RMK A01 T02390180  RH  072%=      5-min Rain = 0
KPT1 201350Z 21009KT 24/18 A2981 RMK A01 T02430175  RH  068%=      5-min Rain = 0
KPT1 201355Z 21008G13KT 25/17 A2981 RMK A01 T02450171  RH  065%=      5-min Rain = 0
KPT1 201400Z 20007KT 25/17 A2981 RMK A01 T02490167  RH  062%=      5-min Rain = 0
KPT1 201405Z 22005G10KT 26/16 A2981 RMK A01 T02550158  RH  056%=      5-min Rain = 0
KPT1 201410Z 33004KT 27/16 A2982 RMK A01 T02650159  RH  054%=      5-min Rain = 0
KPT1 201415Z 26005KT 26/15 A2982 RMK A01 T02640153  RH  052%=      5-min Rain = 0
KPT1 201420Z 23009KT 26/15 A2982 RMK A01 T02630150  RH  051%=      5-min Rain = 0
KPT1 201425Z 23012G17KT 27/14 A2981 RMK A01 T02650140  RH  047%=      5-min Rain = 0
KPT1 201430Z 23011G16KT 27/13 A2981 RMK A01 T02690131  RH  043%=      5-min Rain = 0
KPT1 201435Z 23010G15KT 27/13 A2981 RMK A01 T02740128  RH  041%=      5-min Rain = 0
KPT1 201440Z 23007G13KT 28/13 A2981 RMK A01 T02790128  RH  040%=      5-min Rain = 0
KPT1 201445Z 23009KT 28/12 A2981 RMK A01 T02830122  RH  038%=      5-min Rain = 0
KPT1 201450Z 24008KT 29/12 A2982 RMK A01 T02870119  RH  036%=      5-min Rain = 0
KPT1 201455Z 22009KT 29/11 A2981 RMK A01 T02900114  RH  034%=      5-min Rain = 0
KPT1 201500Z 21007G13KT 29/12 A2981 RMK A01 T02940117  RH  034%=      5-min Rain = 0
KPT1 201505Z 23007G13KT 30/11 A2981 RMK A01 T02990105  RH  031%=      5-min Rain = 0
KPT1 201510Z 22010G15KT 30/09 A2981 RMK A01 T03030085  RH  026%=      5-min Rain = 0
KPT1 201515Z 23008KT 31/09 A2981 RMK A01 T03050087  RH  026%=      5-min Rain = 0
KPT1 201520Z 21008G15KT 31/08 A2981 RMK A01 T03100080  RH  024%=      5-min Rain = 0
KPT1 201525Z 22007KT 31/07 A2981 RMK A01 T03110070  RH  022%=      5-min Rain = 0
KPT1 201530Z 22009G16KT 31/06 A2981 RMK A01 T03140064  RH  021%=      5-min Rain = 0
KPT1 201535Z 22007G14KT 32/06 A2981 RMK A01 T03170057  RH  020%=      5-min Rain = 0
KPT1 201540Z 23009G14KT 32/06 A2981 RMK A01 T03200063  RH  020%=      5-min Rain = 0
KPT1 201545Z 23008G15KT 32/06 A2981 RMK A01 T03240060  RH  020%=      5-min Rain = 0
KPT1 201550Z 22009G14KT 32/06 A2981 RMK A01 T03230055  RH  019%=      5-min Rain = 0
KPT1 201555Z 22011G16KT 32/05 A2981 RMK A01 T03240048  RH  018%=      5-min Rain = 0
KPT1 201600Z 23010G15KT 33/05 A2981 RMK A01 T03280048  RH  018%=      5-min Rain = 0
KPT1 201605Z 24010KT 33/05 A298 RMK A01 T03300047  RH  017%=      5-min Rain = 0
KPT1 201610Z 24009G14KT 33/05 A298 RMK A01 T03320048  RH  017%=      5-min Rain = 0
KPT1 201615Z 22007G12KT 34/06 A298 RMK A01 T03350057  RH  018%=      5-min Rain = 0
KPT1 201620Z 23009G17KT 34/05 A2981 RMK A01 T03380054  RH  017%=      5-min Rain = 0
KPT1 201625Z 23011G17KT 34/04 A2981 RMK A01 T03380039  RH  016%=      5-min Rain = 0
KPT1 201630Z 22009G15KT 34/05 A2981 RMK A01 T03410048  RH  016%=      5-min Rain = 0
KPT1 201635Z 23011G17KT 34/04 A2981 RMK A01 T03420044  RH  016%=      5-min Rain = 0
KPT1 201640Z 22011G18KT 34/04 A2981 RMK A01 T03430043  RH  016%=      5-min Rain = 0
KPT1 201645Z 22012G19KT 34/05 A2981 RMK A01 T03440045  RH  016%=      5-min Rain = 0
KPT1 201650Z 24012G17KT 35/04 A2981 RMK A01 T03480039  RH  015%=      5-min Rain = 0
KPT1 201655Z 25010G16KT 35/03 A2981 RMK A01 T03530028  RH  013%=      5-min Rain = 0
KPT1 201700Z 24013G20KT 35/02 A2981 RMK A01 T03520021  RH  013%=      5-min Rain = 0
KPT1 201705Z 24010G16KT 35/03 A2981 RMK A01 T03510026  RH  013%=      5-min Rain = 0
KPT1 201710Z 22011G17KT 35/03 A2981 RMK A01 T03540030  RH  013%=      5-min Rain = 0
KPT1 201715Z 24010G15KT 35/02 A2981 RMK A01 T03530022  RH  013%=      5-min Rain = 0
KPT1 201720Z 22009G15KT 36/03 A2981 RMK A01 T03590030  RH  013%=      5-min Rain = 0
KPT1 201725Z 21011G17KT 35/01 A2981 RMK A01 T03530006  RH  011%=      5-min Rain = 0
KPT1 201730Z 22010G17KT 36/02 A2981 RMK A01 T03570018  RH  012%=      5-min Rain = 0
KPT1 201735Z 22010KT 35/02 A2981 RMK A01 T03540020  RH  012%=      5-min Rain = 0
KPT1 201740Z 21007G12KT 36/03 A2981 RMK A01 T03600028  RH  013%=      5-min Rain = 0
KPT1 201745Z 21007G12KT 36/03 A2981 RMK A01 T03640028  RH  012%=      5-min Rain = 0
KPT1 201750Z 21008G13KT 36/02 A2981 RMK A01 T03620019  RH  012%=      5-min Rain = 0
KPT1 201755Z 20011KT 36/02 A2981 RMK A01 T03640019  RH  012%=      5-min Rain = 0
KPT1 201800Z 20007KT 37/03 A2981 RMK A01 T03660029  RH  012%=      5-min Rain = 0
KPT1 201805Z 21009G16KT 37/03 A298 RMK A01 T03680030  RH  012%=      5-min Rain = 0
KPT1 201810Z 22007KT 37/03 A298 RMK A01 T03730034  RH  012%=      5-min Rain = 0
KPT1 201815Z 21010KT 37/03 A298 RMK A01 T03720026  RH  012%=      5-min Rain = 0
KPT1 201820Z 22011KT 37/02 A298 RMK A01 T03730022  RH  011%=      5-min Rain = 0
KPT1 201825Z 20010KT 38/03 A298 RMK A01 T03760026  RH  011%=      5-min Rain = 0
KPT1 201830Z 20010KT 38/02 A298 RMK A01 T03750023  RH  011%=      5-min Rain = 0
KPT1 201835Z 20010KT 38/02 A298 RMK A01 T03750022  RH  011%=      5-min Rain = 0
KPT1 201840Z 19010G15KT 38/03 A2979 RMK A01 T03810028  RH  011%=      5-min Rain = 0
KPT1 201845Z 20011KT 38/02 A2979 RMK A01 T03820021  RH  011%=      5-min Rain = 0
KPT1 201850Z 21011G17KT 38/02 A2979 RMK A01 T03830017  RH  010%=      5-min Rain = 0
KPT1 201855Z 21011G18KT 39/00 A2979 RMK A01 T03850004  RH  009%=      5-min Rain = 0
KPT1 201900Z 21013G19KT 39/M00 A2978 RMK A01 T03861004  RH  009%=      5-min Rain = 0
KPT1 201905Z 20010G15KT 39/01 A2978 RMK A01 T03900007  RH  009%=      5-min Rain = 0
KPT1 201910Z 20011G17KT 39/00 A2978 RMK A01 T03910002  RH  009%=      5-min Rain = 0
KPT1 201915Z 21012G20KT 39/M01 A2978 RMK A01 T03931014  RH  008%=      5-min Rain = 0
KPT1 201920Z 20013G18KT 39/M02 A2978 RMK A01 T03931018  RH  008%=      5-min Rain = 0
KPT1 201925Z 20014G19KT 39/M03 A2978 RMK A01 T03921030  RH  007%=      5-min Rain = 0
KPT1 201930Z 20013G18KT 39/M03 A2978 RMK A01 T03921034  RH  007%=      5-min Rain = 0
KPT1 201935Z 20010G16KT 40/M02 A2977 RMK A01 T03971019  RH  007%=      5-min Rain = 0
KPT1 201940Z 23013G19KT 40/M04 A2977 RMK A01 T03981036  RH  007%=      5-min Rain = 0
KPT1 201945Z 22009KT 40/M03 A2977 RMK A01 T03961030  RH  007%=      5-min Rain = 0
KPT1 201950Z 20013G18KT 40/M02 A2977 RMK A01 T03991022  RH  007%=      5-min Rain = 0
KPT1 201955Z 20012G18KT 40/M03 A2977 RMK A01 T03971025  RH  007%=      5-min Rain = 0
KPT1 202000Z 20009G17KT 40/M02 A2976 RMK A01 T03981019  RH  007%=      5-min Rain = 0
KPT1 202005Z 20012KT 40/M02 A2976 RMK A01 T03991019  RH  007%=      5-min Rain = 0
KPT1 202010Z 23011G16KT 40/M03 A2976 RMK A01 T04001026  RH  007%=      5-min Rain = 0
KPT1 202015Z 21010G16KT 40/M02 A2976 RMK A01 T04001024  RH  007%=      5-min Rain = 0
KPT1 202020Z 23009G15KT 40/M03 A2976 RMK A01 T03991034  RH  007%=      5-min Rain = 0
KPT1 202025Z 21009G17KT 40/M02 A2976 RMK A01 T04031019  RH  007%=      5-min Rain = 0
KPT1 202030Z 20013G19KT 40/M03 A2976 RMK A01 T04001027  RH  007%=      5-min Rain = 0
KPT1 202035Z 21010KT 40/M03 A2976 RMK A01 T04011025  RH  007%=      5-min Rain = 0
KPT1 202040Z 20009G16KT 40/M03 A2975 RMK A01 T04021026  RH  007%=      5-min Rain = 0
KPT1 202045Z 21012KT 40/M03 A2975 RMK A01 T04001031  RH  007%=      5-min Rain = 0
KPT1 202050Z 23010G15KT 40/M03 A2975 RMK A01 T04011025  RH  007%=      5-min Rain = 0
KPT1 202055Z 24006G12KT 40/M04 A2975 RMK A01 T04001036  RH  006%=      5-min Rain = 0
KPT1 202100Z 22008G13KT 40/M02 A2975 RMK A01 T04031022  RH  007%=      5-min Rain = 0
KPT1 202105Z 20011G16KT 40/M02 A2975 RMK A01 T04031023  RH  007%=      5-min Rain = 0
KPT1 202110Z 19009G14KT 40/M02 A2974 RMK A01 T04021022  RH  007%=      5-min Rain = 0
KPT1 202115Z 18009G15KT 40/M02 A2974 RMK A01 T04021021  RH  007%=      5-min Rain = 0
KPT1 202120Z 20009G15KT 40/M02 A2974 RMK A01 T04031023  RH  007%=      5-min Rain = 0
KPT1 202125Z 20014G19KT 40/M03 A2974 RMK A01 T03991034  RH  007%=      5-min Rain = 0
KPT1 202130Z 19012G19KT 40/M03 A2974 RMK A01 T04001029  RH  007%=      5-min Rain = 0
KPT1 202135Z 18010KT 40/M03 A2974 RMK A01 T04001026  RH  007%=      5-min Rain = 0
KPT1 202140Z 21013G19KT 40/M03 A2974 RMK A01 T04001034  RH  007%=      5-min Rain = 0
KPT1 202145Z 20009G14KT 40/M04 A2974 RMK A01 T03971038  RH  006%=      5-min Rain = 0
KPT1 202150Z 18007G12KT 40/M03 A2974 RMK A01 T04011030  RH  007%=      5-min Rain = 0
KPT1 202155Z 19006KT 40/M03 A2973 RMK A01 T04001029  RH  007%=      5-min Rain = 0
KPT1 202200Z 18010G16KT 39/M03 A2973 RMK A01 T03941028  RH  007%=      5-min Rain = 0
KPT1 202205Z 22012G17KT 39/M04 A2973 RMK A01 T03911040  RH  007%=      5-min Rain = 0
KPT1 202210Z 20012G19KT 40/M04 A2973 RMK A01 T03991035  RH  006%=      5-min Rain = 0
KPT1 202215Z 19011KT 40/M03 A2973 RMK A01 T04011028  RH  007%=      5-min Rain = 0
KPT1 202220Z 20013G18KT 40/M04 A2973 RMK A01 T03981040  RH  006%=      5-min Rain = 0
KPT1 202225Z 19012G18KT 40/M04 A2973 RMK A01 T03961037  RH  007%=      5-min Rain = 0
KPT1 202230Z 20009G15KT 38/M04 A2973 RMK A01 T03841039  RH  007%=      5-min Rain = 0
KPT1 202235Z 21007G15KT 40/M03 A2973 RMK A01 T03961031  RH  007%=      5-min Rain = 0
KPT1 202240Z 19010G16KT 40/M03 A2972 RMK A01 T04021028  RH  007%=      5-min Rain = 0
KPT1 202245Z 19012G17KT 40/M04 A2972 RMK A01 T03991037  RH  006%=      5-min Rain = 0
KPT1 202250Z 22012KT 40/M04 A2972 RMK A01 T03971041  RH  006%=      5-min Rain = 0
KPT1 202255Z 22011KT 40/M05 A2972 RMK A01 T03971047  RH  006%=      5-min Rain = 0
KPT1 202300Z 22009KT 40/M04 A2972 RMK A01 T03981042  RH  006%=      5-min Rain = 0
KPT1 202305Z 21013G19KT 40/M04 A2972 RMK A01 T03971042  RH  006%=      5-min Rain = 0
KPT1 202310Z 20010G15KT 40/M04 A2972 RMK A01 T03961036  RH  007%=      5-min Rain = 0
KPT1 202315Z 20009G14KT 40/M03 A2972 RMK A01 T03961034  RH  007%=      5-min Rain = 0
KPT1 202320Z 21010G16KT 39/M03 A2971 RMK A01 T03941034  RH  007%=      5-min Rain = 0
KPT1 202325Z 20011KT 39/M03 A2971 RMK A01 T03931032  RH  007%=      5-min Rain = 0
KPT1 202330Z 18008KT 39/M03 A2971 RMK A01 T03921026  RH  007%=      5-min Rain = 0
KPT1 202335Z 19008KT 39/M03 A2971 RMK A01 T03911031  RH  007%=      5-min Rain = 0
KPT1 202340Z 19006KT 39/M02 A2971 RMK A01 T03851020  RH  008%=      5-min Rain = 0
KPT1 202345Z 18006KT 39/M02 A2971 RMK A01 T03861021  RH  008%=      5-min Rain = 0
KPT1 202350Z 18006KT 39/M02 A2971 RMK A01 T03891018  RH  008%=      5-min Rain = 0
KPT1 202355Z 20008KT 38/M01 A2971 RMK A01 T03821011  RH  009%=      5-min Rain = 0
KPT1 210000Z 20008KT 38/M02 A2971 RMK A01 T03811021  RH  008%=      5-min Rain = 0
KPT1 210005Z 20006KT 38/M02 A2971 RMK A01 T03791019  RH  008%=      5-min Rain = 0
KPT1 210010Z 19006KT 38/M01 A2971 RMK A01 T03821007  RH  009%=      5-min Rain = 0
KPT1 210015Z 19005KT 38/00 A2971 RMK A01 T038100-0  RH  009%=      5-min Rain = 0
KPT1 210020Z 19006KT 38/00 A297 RMK A01 T03800003  RH  010%=      5-min Rain = 0
KPT1 210025Z 18008KT 38/M01 A297 RMK A01 T03781009  RH  009%=      5-min Rain = 0
KPT1 210030Z 19007KT 38/M00 A297 RMK A01 T03751001  RH  010%=      5-min Rain = 0
KPT1 210035Z 18007KT 38/M01 A297 RMK A01 T03751006  RH  009%=      5-min Rain = 0
KPT1 210040Z 19005KT 37/00 A297 RMK A01 T03730003  RH  010%=      5-min Rain = 0
KPT1 210045Z 19005KT 37/01 A2971 RMK A01 T03710009  RH  010%=      5-min Rain = 0
KPT1 210050Z 19005KT 37/01 A297 RMK A01 T03700006  RH  010%=      5-min Rain = 0
KPT1 210055Z 19005KT 37/01 A297 RMK A01 T03660010  RH  011%=      5-min Rain = 0
KPT1 210100Z 18006KT 36/01 A297 RMK A01 T03630011  RH  011%=      5-min Rain = 0
KPT1 210105Z 18006KT 36/02 A297 RMK A01 T03590017  RH  012%=      5-min Rain = 0
KPT1 210110Z 18006KT 36/02 A297 RMK A01 T03570016  RH  012%=      5-min Rain = 0
KPT1 210115Z 18006KT 36/01 A297 RMK A01 T03560013  RH  012%=      5-min Rain = 0
KPT1 210120Z 20005KT 35/02 A2971 RMK A01 T03510019  RH  013%=      5-min Rain = 0
KPT1 210125Z 19004KT 35/02 A297 RMK A01 T03480017  RH  013%=      5-min Rain = 0
KPT1 210130Z 20004KT 35/02 A297 RMK A01 T03480016  RH  012%=      5-min Rain = 0
KPT1 210135Z 21005KT 35/02 A2971 RMK A01 T03470017  RH  013%=      5-min Rain = 0
KPT1 210140Z 21004KT 34/02 A2971 RMK A01 T03420017  RH  013%=      5-min Rain = 0
KPT1 210145Z 20005KT 34/02 A2971 RMK A01 T03390016  RH  013%=      5-min Rain = 0
KPT1 210150Z 20005KT 34/02 A2971 RMK A01 T03360015  RH  013%=      5-min Rain = 0
KPT1 210155Z 20005KT 34/02 A2971 RMK A01 T03350016  RH  013%=      5-min Rain = 0
KPT1 210200Z 20005KT 33/02 A2971 RMK A01 T03310019  RH  014%=      5-min Rain = 0
KPT1 210205Z 20005KT 33/02 A2971 RMK A01 T03290020  RH  014%=      5-min Rain = 0
KPT1 210210Z 21006KT 33/02 A2971 RMK A01 T03270019  RH  014%=      5-min Rain = 0
KPT1 210215Z 21006KT 32/02 A2971 RMK A01 T03230024  RH  015%=      5-min Rain = 0
KPT1 210220Z 22006KT 32/03 A2971 RMK A01 T03180031  RH  016%=      5-min Rain = 0
KPT1 210225Z 22005KT 32/03 A2971 RMK A01 T03170034  RH  017%=      5-min Rain = 0
KPT1 210230Z 22006KT 31/04 A2971 RMK A01 T03130037  RH  018%=      5-min Rain = 0
KPT1 210235Z 22006KT 31/03 A2971 RMK A01 T03110034  RH  018%=      5-min Rain = 0
KPT1 210240Z 22007KT 31/03 A2972 RMK A01 T03110027  RH  017%=      5-min Rain = 0
KPT1 210245Z 21007KT 31/02 A2972 RMK A01 T03100023  RH  016%=      5-min Rain = 0
KPT1 210250Z 21007KT 31/02 A2972 RMK A01 T03090020  RH  016%=      5-min Rain = 0
KPT1 210255Z 21007KT 31/02 A2972 RMK A01 T03070020  RH  016%=      5-min Rain = 0
KPT1 210300Z 21007KT 31/02 A2972 RMK A01 T03080016  RH  016%=      5-min Rain = 0
KPT1 210305Z 21008KT 31/01 A2972 RMK A01 T03090010  RH  015%=      5-min Rain = 0
KPT1 210310Z 22007KT 31/01 A2972 RMK A01 T03100008  RH  015%=      5-min Rain = 0
KPT1 210315Z 21007KT 31/01 A2972 RMK A01 T03080009  RH  015%=      5-min Rain = 0
KPT1 210320Z 21006KT 31/01 A2973 RMK A01 T03070009  RH  015%=      5-min Rain = 0
KPT1 210325Z 21007KT 30/01 A2973 RMK A01 T03040010  RH  015%=      5-min Rain = 0
KPT1 210330Z 22007KT 31/01 A2973 RMK A01 T03050008  RH  015%=      5-min Rain = 0
KPT1 210335Z 22008KT 31/00 A2973 RMK A01 T03060002  RH  014%=      5-min Rain = 0
KPT1 210340Z 22007KT 31/M00 A2973 RMK A01 T03051001  RH  014%=      5-min Rain = 0
KPT1 210345Z 22008KT 30/M00 A2974 RMK A01 T03041001  RH  014%=      5-min Rain = 0
KPT1 210350Z 22008KT 30/M00 A2974 RMK A01 T03031002  RH  014%=      5-min Rain = 0
KPT1 210355Z 22008KT 30/M00 A2974 RMK A01 T03011002  RH  014%=      5-min Rain = 0
KPT1 210400Z 22008KT 30/00 A2974 RMK A01 T02960001  RH  015%=      5-min Rain = 0
KPT1 210405Z 22009KT 29/00 A2974 RMK A01 T02930004  RH  016%=      5-min Rain = 0
KPT1 210410Z 22010KT 29/00 A2974 RMK A01 T02910004  RH  016%=      5-min Rain = 0
KPT1 210415Z 23009KT 29/00 A2974 RMK A01 T02890002  RH  016%=      5-min Rain = 0
KPT1 210420Z 22008KT 29/00 A2974 RMK A01 T02870002  RH  016%=      5-min Rain = 0
KPT1 210425Z 22008G13KT 29/M00 A2974 RMK A01 T02891002  RH  015%=      5-min Rain = 0
KPT1 210430Z 21007KT 29/M01 A2974 RMK A01 T02881005  RH  015%=      5-min Rain = 0
KPT1 210435Z 17007KT 28/01 A2975 RMK A01 T02820007  RH  017%=      5-min Rain = 0
KPT1 210440Z 17009KT 27/02 A2975 RMK A01 T02680015  RH  020%=      5-min Rain = 0
KPT1 210445Z 18008KT 27/01 A2975 RMK A01 T02730008  RH  018%=      5-min Rain = 0
KPT1 210450Z 18008KT 27/01 A2975 RMK A01 T02730005  RH  018%=      5-min Rain = 0
KPT1 210455Z 19009KT 28/M00 A2976 RMK A01 T02781003  RH  016%=      5-min Rain = 0

Page generated in 0.0099 seconds.